createdAt,value
2023-05-19T00:00:51.934Z,99555.28
2023-05-19T00:03:39.926Z,99555.00
2023-05-19T00:06:27.097Z,99554.34
2023-05-19T00:09:12.090Z,99551.19
2023-05-19T00:11:57.096Z,99549.53
2023-05-19T00:14:42.231Z,99552.63
2023-05-19T00:17:26.723Z,99552.53
2023-05-19T00:20:12.075Z,99553.66
2023-05-19T00:22:57.170Z,99547.84
2023-05-19T00:25:42.235Z,99555.28
2023-05-19T00:28:27.403Z,99554.97
2023-05-19T00:31:12.216Z,99554.00
2023-05-19T00:33:57.248Z,99559.28
2023-05-19T00:36:43.109Z,99556.75
2023-05-19T00:39:28.115Z,99555.41
2023-05-19T00:42:14.032Z,99556.09
2023-05-19T00:44:59.477Z,99558.22
2023-05-19T00:47:44.409Z,99561.03
2023-05-19T00:50:30.150Z,99563.97
2023-05-19T00:53:17.732Z,99573.38
2023-05-19T00:56:02.884Z,99562.66
2023-05-19T00:58:50.356Z,99566.94
2023-05-19T01:01:36.064Z,99559.25
2023-05-19T01:04:21.346Z,99566.22
2023-05-19T01:07:06.666Z,99566.31
2023-05-19T01:09:51.525Z,99562.41
2023-05-19T01:12:36.519Z,99569.38
2023-05-19T01:15:23.088Z,99568.59
2023-05-19T01:18:13.898Z,99572.63
2023-05-19T01:21:15.495Z,99562.28
2023-05-19T01:24:42.094Z,99570.94
2023-05-19T01:28:15.617Z,99574.97
2023-05-19T01:31:03.565Z,99568.09
2023-05-19T01:33:51.221Z,99574.31
2023-05-19T01:36:37.276Z,99567.66
2023-05-19T01:39:23.209Z,99570.13
2023-05-19T01:42:08.700Z,99575.59
2023-05-19T01:44:54.891Z,99575.50
2023-05-19T01:47:43.110Z,99570.13
2023-05-19T01:50:29.238Z,99572.13
2023-05-19T01:53:14.432Z,99571.81
2023-05-19T01:56:00.079Z,99572.03
2023-05-19T01:58:56.177Z,99572.47
2023-05-19T02:01:53.804Z,99576.09
2023-05-19T02:04:48.377Z,99579.13
2023-05-19T02:07:51.606Z,99572.97
2023-05-19T02:10:39.872Z,99584.06
2023-05-19T02:13:30.754Z,99583.84
2023-05-19T02:16:16.995Z,99586.19
2023-05-19T02:19:02.347Z,99583.84
2023-05-19T02:21:47.289Z,99579.56
2023-05-19T02:24:32.272Z,99581.44
2023-05-19T02:27:18.019Z,99586.97
2023-05-19T02:30:04.113Z,99588.31
2023-05-19T02:32:49.161Z,99594.91
2023-05-19T02:35:33.949Z,99592.63
2023-05-19T02:38:18.810Z,99590.13
2023-05-19T02:41:03.851Z,99592.28
2023-05-19T02:43:49.042Z,99591.59
2023-05-19T02:46:34.152Z,99599.44
2023-05-19T02:49:18.863Z,99599.75
2023-05-19T02:52:04.996Z,99605.25
2023-05-19T02:54:49.843Z,99612.78
2023-05-19T02:57:34.737Z,99608.72
2023-05-19T03:00:20.367Z,99606.69
2023-05-19T03:03:05.092Z,99608.81
2023-05-19T03:05:50.141Z,99617.66
2023-05-19T03:08:36.129Z,99615.88
2023-05-19T03:11:22.923Z,99611.81
2023-05-19T03:14:11.364Z,99612.69
2023-05-19T03:16:55.983Z,99617.97
2023-05-19T03:19:41.009Z,99611.28
2023-05-19T03:22:25.963Z,99614.75
2023-05-19T03:25:11.269Z,99614.59
2023-05-19T03:27:56.428Z,99621.94
2023-05-19T03:30:40.865Z,99613.47
2023-05-19T03:33:30.022Z,99622.56
2023-05-19T03:36:14.733Z,99624.00
2023-05-19T03:38:59.865Z,99623.28
2023-05-19T03:41:45.139Z,99624.38
2023-05-19T03:44:29.963Z,99624.44
2023-05-19T03:47:18.116Z,99625.31
2023-05-19T03:50:37.513Z,99630.09
2023-05-19T03:53:32.792Z,99635.34
2023-05-19T03:56:17.953Z,99631.56
2023-05-19T03:59:05.570Z,99640.28
2023-05-19T04:01:51.040Z,99637.06
2023-05-19T04:04:37.409Z,99637.13
2023-05-19T04:07:22.970Z,99632.34
2023-05-19T04:10:08.447Z,99637.66
2023-05-19T04:12:53.484Z,99634.31
2023-05-19T04:15:38.701Z,99631.56
2023-05-19T04:18:23.885Z,99641.22
2023-05-19T04:21:08.632Z,99635.03
2023-05-19T04:23:53.264Z,99637.31
2023-05-19T04:26:41.581Z,99637.13
2023-05-19T04:29:29.162Z,99641.06
2023-05-19T04:32:16.849Z,99641.63
2023-05-19T04:35:02.661Z,99647.19
2023-05-19T04:37:48.004Z,99649.41
2023-05-19T04:40:36.449Z,99644.09
2023-05-19T04:43:21.619Z,99650.88
2023-05-19T04:46:13.373Z,99652.31
2023-05-19T04:49:00.645Z,99654.44
2023-05-19T04:51:49.526Z,99657.44
2023-05-19T04:54:38.082Z,99652.69
2023-05-19T04:57:24.079Z,99652.28
2023-05-19T05:00:12.653Z,99651.16
2023-05-19T05:03:08.900Z,99651.28
2023-05-19T05:05:53.959Z,99657.31
2023-05-19T05:08:40.658Z,99657.66
2023-05-19T05:11:26.447Z,99664.47
2023-05-19T05:14:12.621Z,99666.91
2023-05-19T05:16:57.775Z,99665.84
2023-05-19T05:19:43.193Z,99666.16
2023-05-19T05:22:28.243Z,99668.22
2023-05-19T05:25:14.298Z,99670.06
2023-05-19T05:28:04.345Z,99668.72
2023-05-19T05:30:51.482Z,99675.19
2023-05-19T05:33:38.202Z,99671.03
2023-05-19T05:36:23.335Z,99676.44
2023-05-19T05:39:08.221Z,99687.09
2023-05-19T05:41:54.314Z,99685.19
2023-05-19T05:44:39.272Z,99682.50
2023-05-19T05:47:24.923Z,99688.09
2023-05-19T05:50:11.378Z,99695.81
2023-05-19T05:53:00.851Z,99694.38
2023-05-19T05:55:50.001Z,99685.81
2023-05-19T05:58:37.421Z,99691.94
2023-05-19T06:01:23.646Z,99699.91
2023-05-19T06:04:09.909Z,99692.53
2023-05-19T06:07:00.371Z,99699.91
2023-05-19T06:09:46.504Z,99698.28
2023-05-19T06:12:33.322Z,99701.06
2023-05-19T06:15:18.196Z,99699.41
2023-05-19T06:18:09.393Z,99705.03
2023-05-19T06:20:54.255Z,99704.38
2023-05-19T06:23:40.415Z,99709.97
2023-05-19T06:26:27.586Z,99710.81
2023-05-19T06:29:12.790Z,99714.00
2023-05-19T06:31:58.608Z,99708.47
2023-05-19T06:34:43.825Z,99716.63
2023-05-19T06:37:28.920Z,99709.75
2023-05-19T06:40:16.468Z,99711.94
2023-05-19T06:43:02.950Z,99720.97
2023-05-19T06:46:14.326Z,99723.34
2023-05-19T06:49:01.154Z,99727.53
2023-05-19T06:51:49.648Z,99722.09
2023-05-19T06:54:34.683Z,99728.69
2023-05-19T06:57:21.074Z,99722.50
2023-05-19T07:00:09.773Z,99734.28
2023-05-19T07:02:54.538Z,99731.38
2023-05-19T07:05:41.562Z,99731.88
2023-05-19T07:08:27.226Z,99726.47
2023-05-19T07:11:12.280Z,99727.66
2023-05-19T07:13:58.527Z,99723.75
2023-05-19T07:16:46.466Z,99733.22
2023-05-19T07:19:31.679Z,99728.44
2023-05-19T07:22:16.632Z,99727.72
2023-05-19T07:25:04.471Z,99726.91
2023-05-19T07:27:50.750Z,99737.41
2023-05-19T07:30:35.872Z,99736.59
2023-05-19T07:33:23.847Z,99737.84
2023-05-19T07:36:08.770Z,99730.84
2023-05-19T07:38:53.939Z,99739.25
2023-05-19T07:41:42.804Z,99745.03
2023-05-19T07:44:30.571Z,99738.41
2023-05-19T07:47:15.466Z,99743.50
2023-05-19T07:50:00.357Z,99742.56
2023-05-19T07:52:45.049Z,99740.09
2023-05-19T07:55:30.215Z,99738.47
2023-05-19T07:58:16.170Z,99729.72
2023-05-19T08:01:00.996Z,99736.59
2023-05-19T08:03:45.806Z,99741.63
2023-05-19T08:06:31.259Z,99740.63
2023-05-19T08:09:16.345Z,99738.84
2023-05-19T08:12:01.824Z,99743.38
2023-05-19T08:14:46.738Z,99734.25
2023-05-19T08:17:31.949Z,99736.06
2023-05-19T08:20:16.729Z,99739.97
2023-05-19T08:23:01.822Z,99742.91
2023-05-19T08:25:47.111Z,99744.94
2023-05-19T08:28:31.918Z,99743.22
2023-05-19T08:31:17.749Z,99752.00
2023-05-19T08:34:02.888Z,99744.22
2023-05-19T08:36:48.285Z,99752.69
2023-05-19T08:39:34.190Z,99760.09
2023-05-19T08:42:19.102Z,99753.94
2023-05-19T08:45:04.089Z,99751.22
2023-05-19T08:47:50.723Z,99757.56
2023-05-19T08:50:41.607Z,99757.97
2023-05-19T08:53:36.384Z,99760.63
2023-05-19T08:56:23.525Z,99765.56
2023-05-19T08:59:08.817Z,99760.09
2023-05-19T09:01:54.761Z,99761.91
2023-05-19T09:04:41.586Z,99763.13
2023-05-19T09:07:27.148Z,99762.88
2023-05-19T09:10:15.608Z,99767.28
2023-05-19T09:13:00.866Z,99762.88
2023-05-19T09:15:46.426Z,99764.66
2023-05-19T09:18:31.962Z,99765.81
2023-05-19T09:21:17.126Z,99763.50
2023-05-19T09:24:06.223Z,99760.84
2023-05-19T09:26:54.212Z,99752.09
2023-05-19T09:29:38.883Z,99751.66
2023-05-19T09:32:26.254Z,99752.31
2023-05-19T09:35:13.258Z,99757.06
2023-05-19T09:37:58.266Z,99751.78
2023-05-19T09:40:43.569Z,99749.63
2023-05-19T09:43:30.261Z,99752.66
2023-05-19T09:46:15.177Z,99743.50
2023-05-19T09:48:59.747Z,99744.63
2023-05-19T09:51:45.371Z,99743.91
2023-05-19T09:54:31.651Z,99744.09
2023-05-19T09:57:17.249Z,99746.38
2023-05-19T10:00:14.611Z,99746.66
2023-05-19T10:03:00.569Z,99749.56
2023-05-19T10:05:47.084Z,99751.50
2023-05-19T10:08:33.633Z,99748.34
2023-05-19T10:11:19.033Z,99753.94
2023-05-19T10:14:04.640Z,99751.34
2023-05-19T10:16:54.957Z,99744.91
2023-05-19T10:19:43.236Z,99753.00
2023-05-19T10:22:28.113Z,99752.66
2023-05-19T10:25:14.788Z,99756.88
2023-05-19T10:28:14.182Z,99752.09
2023-05-19T10:31:02.160Z,99758.28
2023-05-19T10:34:18.445Z,99759.41
2023-05-19T10:37:17.296Z,99757.06
2023-05-19T10:40:19.654Z,99767.09
2023-05-19T10:43:16.225Z,99756.84
2023-05-19T10:46:01.034Z,99764.00
2023-05-19T10:48:46.336Z,99759.25
2023-05-19T10:51:31.748Z,99761.91
2023-05-19T10:54:17.799Z,99761.88
2023-05-19T10:57:02.258Z,99761.81
2023-05-19T10:59:48.953Z,99762.75
2023-05-19T11:02:41.276Z,99767.66
2023-05-19T11:05:29.452Z,99772.19
2023-05-19T11:08:14.239Z,99772.81
2023-05-19T11:11:16.179Z,99776.44
2023-05-19T11:14:03.696Z,99775.09
2023-05-19T11:16:51.450Z,99773.25
2023-05-19T11:19:36.321Z,99769.25
2023-05-19T11:22:28.151Z,99763.59
2023-05-19T11:25:12.989Z,99772.06
2023-05-19T11:27:57.980Z,99761.69
2023-05-19T11:30:44.874Z,99761.13
2023-05-19T11:33:32.141Z,99769.56
2023-05-19T11:36:18.978Z,99760.00
2023-05-19T11:39:05.364Z,99763.16
2023-05-19T11:41:51.006Z,99762.56
2023-05-19T11:44:35.842Z,99766.34
2023-05-19T11:47:21.259Z,99765.31
2023-05-19T11:50:07.041Z,99769.63
2023-05-19T11:52:53.055Z,99778.31
2023-05-19T11:55:42.950Z,99778.09
2023-05-19T11:58:28.038Z,99788.34
2023-05-19T12:01:17.103Z,99776.53
2023-05-19T12:04:06.948Z,99781.19
2023-05-19T12:06:51.965Z,99777.88
2023-05-19T12:09:37.208Z,99785.38
2023-05-19T12:12:22.794Z,99786.78
2023-05-19T12:15:08.419Z,99781.09
2023-05-19T12:18:01.497Z,99788.13
2023-05-19T12:20:46.733Z,99790.47
2023-05-19T12:23:32.216Z,99786.56
2023-05-19T12:26:22.144Z,99782.44
2023-05-19T12:29:07.132Z,99785.50
2023-05-19T12:31:53.234Z,99781.06
2023-05-19T12:34:47.470Z,99780.16
2023-05-19T12:37:36.806Z,99783.25
2023-05-19T12:40:21.993Z,99781.38
2023-05-19T12:43:08.887Z,99791.69
2023-05-19T12:45:53.864Z,99783.72
2023-05-19T12:48:43.619Z,99788.38
2023-05-19T12:51:28.257Z,99784.16
2023-05-19T12:54:13.302Z,99787.59
2023-05-19T12:56:58.444Z,99774.63
2023-05-19T12:59:43.108Z,99779.91
2023-05-19T13:02:28.431Z,99781.06
2023-05-19T13:05:13.180Z,99780.06
2023-05-19T13:08:01.294Z,99786.53
2023-05-19T13:10:47.018Z,99783.00
2023-05-19T13:13:32.350Z,99779.41
2023-05-19T13:16:17.026Z,99781.28
2023-05-19T13:19:03.242Z,99780.84
2023-05-19T13:21:50.457Z,99789.22
2023-05-19T13:24:35.666Z,99789.72
2023-05-19T13:27:20.598Z,99784.03
2023-05-19T13:30:06.630Z,99783.03
2023-05-19T13:32:51.908Z,99786.91
2023-05-19T13:35:36.868Z,99778.28
2023-05-19T13:38:21.783Z,99781.59
2023-05-19T13:41:07.820Z,99778.88
2023-05-19T13:43:57.811Z,99772.13
2023-05-19T13:46:45.277Z,99773.69
2023-05-19T13:49:31.452Z,99766.75
2023-05-19T13:52:16.959Z,99767.16
2023-05-19T13:55:03.027Z,99763.13
2023-05-19T13:57:48.561Z,99748.84
2023-05-19T14:00:35.018Z,99767.13
2023-05-19T14:03:30.211Z,99764.59
2023-05-19T14:06:15.342Z,99765.59
2023-05-19T14:09:00.187Z,99764.13
2023-05-19T14:11:45.393Z,99764.38
2023-05-19T14:14:30.288Z,99760.00
2023-05-19T14:17:14.874Z,99759.84
2023-05-19T14:20:00.222Z,99764.59
2023-05-19T14:22:45.318Z,99759.41
2023-05-19T14:25:30.277Z,99761.66
2023-05-19T14:28:14.714Z,99769.38
2023-05-19T14:31:00.085Z,99766.84
2023-05-19T14:33:45.164Z,99777.66
2023-05-19T14:36:30.514Z,99779.72
2023-05-19T14:39:15.439Z,99769.97
2023-05-19T14:42:00.346Z,99774.47
2023-05-19T14:44:45.175Z,99773.91
2023-05-19T14:47:30.280Z,99767.72
2023-05-19T14:50:15.023Z,99773.56
2023-05-19T14:53:00.358Z,99763.16
2023-05-19T14:55:48.439Z,99767.22
2023-05-19T14:58:33.245Z,99761.59
2023-05-19T15:01:17.806Z,99765.09
2023-05-19T15:04:02.975Z,99758.72
2023-05-19T15:06:52.309Z,99754.44
2023-05-19T15:09:43.409Z,99759.97
2023-05-19T15:12:27.861Z,99749.88
2023-05-19T15:15:13.666Z,99750.88
2023-05-19T15:17:58.581Z,99751.31
2023-05-19T15:20:45.773Z,99746.41
2023-05-19T15:23:30.685Z,99747.06
2023-05-19T15:26:16.054Z,99747.88
2023-05-19T15:29:01.367Z,99751.31
2023-05-19T15:31:50.555Z,99754.91
2023-05-19T15:34:35.475Z,99745.94
2023-05-19T15:37:20.569Z,99755.88
2023-05-19T15:40:06.531Z,99753.09
2023-05-19T15:42:51.907Z,99759.41
2023-05-19T15:45:36.750Z,99759.81
2023-05-19T15:48:21.508Z,99761.63
2023-05-19T15:51:06.931Z,99761.19
2023-05-19T15:53:52.030Z,99761.44
2023-05-19T15:56:37.319Z,99753.59
2023-05-19T15:59:21.945Z,99752.88
2023-05-19T16:02:07.823Z,99756.34
2023-05-19T16:04:52.743Z,99760.66
2023-05-19T16:07:37.863Z,99758.25
2023-05-19T16:10:23.090Z,99758.47
2023-05-19T16:13:08.108Z,99759.00
2023-05-19T16:15:52.914Z,99757.97
2023-05-19T16:18:38.127Z,99754.13
2023-05-19T16:21:23.670Z,99762.66
2023-05-19T16:24:09.148Z,99759.38
2023-05-19T16:26:54.150Z,99758.97
2023-05-19T16:29:39.172Z,99758.59
2023-05-19T16:32:24.109Z,99758.72
2023-05-19T16:35:09.573Z,99769.88
2023-05-19T16:37:54.775Z,99769.78
2023-05-19T16:40:39.681Z,99772.06
2023-05-19T16:43:25.621Z,99772.69
2023-05-19T16:46:11.465Z,99768.75
2023-05-19T16:48:56.326Z,99771.97
2023-05-19T16:51:41.599Z,99774.81
2023-05-19T16:54:27.981Z,99784.50
2023-05-19T16:57:14.109Z,99783.56
2023-05-19T16:59:59.723Z,99780.50
2023-05-19T17:02:44.406Z,99773.47
2023-05-19T17:05:29.502Z,99775.81
2023-05-19T17:08:14.414Z,99775.81
2023-05-19T17:10:59.456Z,99779.78
2023-05-19T17:13:45.695Z,99787.94
2023-05-19T17:16:30.585Z,99780.50
2023-05-19T17:19:15.877Z,99786.91
2023-05-19T17:22:00.874Z,99787.78
2023-05-19T17:24:46.888Z,99791.50
2023-05-19T17:27:31.977Z,99795.19
2023-05-19T17:30:16.960Z,99787.63
2023-05-19T17:33:03.429Z,99790.47
2023-05-19T17:35:48.679Z,99805.13
2023-05-19T17:38:33.903Z,99805.03
2023-05-19T17:41:18.826Z,99805.22
2023-05-19T17:44:03.678Z,99806.69
2023-05-19T17:46:48.668Z,99805.53
2023-05-19T17:49:33.497Z,99813.47
2023-05-19T17:52:19.890Z,99806.25
2023-05-19T17:55:05.755Z,99815.19
2023-05-19T17:57:50.554Z,99814.22
2023-05-19T18:00:36.135Z,99813.97
2023-05-19T18:03:22.235Z,99821.03
2023-05-19T18:06:08.279Z,99819.75
2023-05-19T18:08:57.359Z,99829.41
2023-05-19T18:11:42.576Z,99827.31
2023-05-19T18:14:27.694Z,99825.22
2023-05-19T18:17:12.638Z,99826.50
2023-05-19T18:19:57.435Z,99825.91
2023-05-19T18:22:42.712Z,99837.09
2023-05-19T18:25:28.219Z,99837.06
2023-05-19T18:28:13.282Z,99831.84
2023-05-19T18:31:03.220Z,99835.44
2023-05-19T18:33:48.825Z,99833.31
2023-05-19T18:36:34.994Z,99833.53
2023-05-19T18:39:20.825Z,99837.19
2023-05-19T18:42:05.871Z,99843.16
2023-05-19T18:44:50.697Z,99846.50
2023-05-19T18:47:35.283Z,99842.84
2023-05-19T18:50:20.366Z,99848.81
2023-05-19T18:53:05.737Z,99839.41
2023-05-19T18:55:50.862Z,99855.78
2023-05-19T18:58:36.168Z,99849.97
2023-05-19T19:01:20.838Z,99847.06
2023-05-19T19:04:06.141Z,99851.94
2023-05-19T19:06:51.756Z,99850.28
2023-05-19T19:09:37.018Z,99848.94
2023-05-19T19:12:21.596Z,99850.19
2023-05-19T19:15:07.087Z,99851.41
2023-05-19T19:17:51.733Z,99853.41
2023-05-19T19:20:36.964Z,99854.66
2023-05-19T19:23:21.919Z,99854.06
2023-05-19T19:26:08.872Z,99856.09
2023-05-19T19:28:53.487Z,99859.66
2023-05-19T19:31:38.974Z,99853.09
2023-05-19T19:34:23.895Z,99853.25
2023-05-19T19:37:09.073Z,99852.66
2023-05-19T19:39:53.953Z,99854.19
2023-05-19T19:42:39.725Z,99850.97
2023-05-19T19:45:24.365Z,99854.78
2023-05-19T19:48:09.755Z,99858.34
2023-05-19T19:50:55.357Z,99860.09
2023-05-19T19:53:40.081Z,99856.09
2023-05-19T19:56:26.764Z,99850.31
2023-05-19T19:59:12.363Z,99859.63
2023-05-19T20:01:57.331Z,99862.91
2023-05-19T20:04:42.146Z,99853.25
2023-05-19T20:07:28.381Z,99857.38
2023-05-19T20:10:13.569Z,99863.81
2023-05-19T20:12:59.294Z,99857.28
2023-05-19T20:15:45.089Z,99865.56
2023-05-19T20:18:29.954Z,99872.22
2023-05-19T20:21:14.838Z,99874.22
2023-05-19T20:23:59.909Z,99877.06
2023-05-19T20:26:45.005Z,99875.16
2023-05-19T20:29:30.298Z,99876.41
2023-05-19T20:32:14.952Z,99867.00
2023-05-19T20:35:00.243Z,99879.97
2023-05-19T20:37:45.263Z,99883.84
2023-05-19T20:40:30.379Z,99887.13
2023-05-19T20:43:15.128Z,99886.31
2023-05-19T20:46:00.910Z,99891.50
2023-05-19T20:48:45.701Z,99887.56
2023-05-19T20:51:30.552Z,99889.88
2023-05-19T20:54:16.472Z,99885.59
2023-05-19T20:57:05.705Z,99888.91
2023-05-19T20:59:50.678Z,99888.81
2023-05-19T21:02:35.770Z,99897.06
2023-05-19T21:05:20.618Z,99894.47
2023-05-19T21:08:10.174Z,99897.28
2023-05-19T21:10:55.110Z,99898.00
2023-05-19T21:13:40.004Z,99896.44
2023-05-19T21:16:25.437Z,99905.75
2023-05-19T21:19:10.298Z,99899.56
2023-05-19T21:21:56.327Z,99899.09
2023-05-19T21:24:41.230Z,99904.84
2023-05-19T21:27:26.450Z,99901.00
2023-05-19T21:30:13.069Z,99897.38
2023-05-19T21:32:58.088Z,99897.38
2023-05-19T21:35:44.204Z,99899.19
2023-05-19T21:38:29.042Z,99899.41
2023-05-19T21:41:14.373Z,99893.22
2023-05-19T21:43:58.969Z,99895.25
2023-05-19T21:46:43.870Z,99899.09
2023-05-19T21:49:29.211Z,99899.88
2023-05-19T21:52:13.862Z,99902.97
2023-05-19T21:54:58.710Z,99907.56
2023-05-19T21:57:43.655Z,99908.97
2023-05-19T22:00:28.810Z,99909.34
2023-05-19T22:03:14.201Z,99911.06
2023-05-19T22:05:59.340Z,99912.22
2023-05-19T22:08:44.396Z,99918.66
2023-05-19T22:11:29.596Z,99915.72
2023-05-19T22:14:14.927Z,99920.38
2023-05-19T22:16:59.410Z,99912.84
2023-05-19T22:19:45.393Z,99914.09
2023-05-19T22:22:29.878Z,99909.13
2023-05-19T22:25:14.524Z,99912.16
2023-05-19T22:28:00.670Z,99913.41
2023-05-19T22:30:45.622Z,99908.69
2023-05-19T22:33:30.720Z,99909.72
2023-05-19T22:36:16.221Z,99901.41
2023-05-19T22:39:01.135Z,99906.25
2023-05-19T22:41:46.177Z,99910.88
2023-05-19T22:44:30.783Z,99907.50
2023-05-19T22:47:15.921Z,99908.50
2023-05-19T22:50:00.787Z,99906.44
2023-05-19T22:52:45.855Z,99903.88
2023-05-19T22:55:30.782Z,99899.03
2023-05-19T22:58:15.876Z,99900.91
2023-05-19T23:01:00.691Z,99905.44
2023-05-19T23:03:45.752Z,99904.47
2023-05-19T23:06:30.835Z,99904.38
2023-05-19T23:09:17.232Z,99904.22
2023-05-19T23:12:01.915Z,99903.03
2023-05-19T23:14:47.180Z,99901.13
2023-05-19T23:17:31.930Z,99901.28
2023-05-19T23:20:16.885Z,99895.72
2023-05-19T23:23:01.936Z,99888.56
2023-05-19T23:25:46.708Z,99896.44
2023-05-19T23:28:31.260Z,99891.56
2023-05-19T23:31:16.261Z,99895.28
2023-05-19T23:34:01.310Z,99882.31
2023-05-19T23:36:46.647Z,99888.06
2023-05-19T23:39:31.284Z,99886.25
2023-05-19T23:42:16.236Z,99892.78
2023-05-19T23:45:00.651Z,99891.22
2023-05-19T23:47:45.980Z,99885.78
2023-05-19T23:50:30.999Z,99886.25
2023-05-19T23:53:16.587Z,99888.38
2023-05-19T23:56:01.290Z,99892.56
2023-05-19T23:58:46.277Z,99888.38
